Princeton, Alabama
Current Conditions -  °F | °C
As of 10:35 AM on Saturday 22 Nov 2014 (Local Time) from K4A6 Reporting Station
Clear Clear  
Wind Chill: 57°   Ceiling: Unl
Heat Index: 57°   Visibility: 10mi
Dew Point: 30°   Wind: 9mph
Humidity: 36%   Direction: 170°S
Pressure: 30.38"   Gusts: NA
Location:  34.84°N, 86.24°W
Report Text: K4A6 221635Z AUTO 17008KT 10SM CLR 14/M01 A3038 RMK AO2
Loading
Personal Weather Stations






























Interactive Weather Map New forecast layout! Learn more

10-Day Weather Forecast

Advertisements
Track Severe Weather on mobile